createdAt,value
2023-03-29T00:02:56.518Z,3.95
2023-03-29T00:08:01.748Z,3.99
2023-03-29T00:13:03.526Z,4.01
2023-03-29T00:18:07.447Z,4.03
2023-03-29T00:23:09.496Z,4.02
2023-03-29T00:28:14.715Z,4.00
2023-03-29T00:33:20.498Z,3.97
2023-03-29T00:38:22.260Z,3.96
2023-03-29T00:43:31.368Z,3.91
2023-03-29T00:48:33.138Z,3.86
2023-03-29T00:53:43.960Z,3.77
2023-03-29T00:59:03.688Z,3.62
2023-03-29T01:04:18.343Z,3.47
2023-03-29T01:09:27.047Z,3.37
2023-03-29T01:14:30.509Z,3.33
2023-03-29T01:19:39.850Z,3.26
2023-03-29T01:25:03.376Z,3.27
2023-03-29T01:30:14.174Z,3.24
2023-03-29T01:36:11.853Z,3.12
2023-03-29T01:41:15.844Z,3.08
2023-03-29T01:46:32.754Z,3.09
2023-03-29T01:51:40.713Z,3.19
2023-03-29T01:56:44.074Z,3.31
2023-03-29T02:01:53.907Z,3.43
2023-03-29T02:07:00.673Z,3.57
2023-03-29T02:12:07.069Z,3.67
2023-03-29T02:17:25.059Z,3.77
2023-03-29T02:22:30.591Z,3.82
2023-03-29T02:27:34.559Z,3.89
2023-03-29T02:33:05.955Z,3.93
2023-03-29T02:38:10.609Z,3.95
2023-03-29T02:43:13.911Z,3.97
2023-03-29T02:48:17.535Z,3.99
2023-03-29T02:53:24.329Z,3.98
2023-03-29T02:58:28.960Z,4.01
2023-03-29T03:03:31.798Z,4.05
2023-03-29T03:08:36.219Z,4.10
2023-03-29T03:13:40.113Z,4.11
2023-03-29T03:18:45.999Z,4.12
2023-03-29T03:23:52.508Z,4.13
2023-03-29T03:28:58.699Z,4.14
2023-03-29T03:34:26.364Z,4.16
2023-03-29T03:39:34.146Z,4.18
2023-03-29T03:44:40.370Z,4.19
2023-03-29T03:49:55.830Z,4.21
2023-03-29T03:55:02.825Z,4.22
2023-03-29T04:00:20.408Z,4.26
2023-03-29T04:05:39.238Z,4.26
2023-03-29T04:10:44.625Z,4.30
2023-03-29T04:15:54.493Z,4.32
2023-03-29T04:20:56.360Z,4.34
2023-03-29T04:26:03.376Z,4.35
2023-03-29T04:31:25.406Z,4.37
2023-03-29T04:36:50.274Z,4.38
2023-03-29T04:41:58.406Z,4.40
2023-03-29T04:47:02.829Z,4.40
2023-03-29T04:52:33.185Z,4.41
2023-03-29T04:57:39.000Z,4.42
2023-03-29T05:02:47.538Z,4.41
2023-03-29T05:07:50.769Z,4.42
2023-03-29T05:12:57.219Z,4.46
2023-03-29T05:18:00.793Z,4.79
2023-03-29T05:23:06.325Z,4.79
2023-03-29T05:28:40.602Z,4.67
2023-03-29T05:33:45.109Z,4.81
2023-03-29T05:38:52.875Z,4.75
2023-03-29T05:44:00.943Z,5.02
2023-03-29T05:49:04.423Z,4.89
2023-03-29T05:54:30.305Z,4.85
2023-03-29T05:59:33.789Z,4.82
2023-03-29T06:04:38.459Z,4.82
2023-03-29T06:10:00.797Z,4.86
2023-03-29T06:15:05.200Z,4.92
2023-03-29T06:20:31.206Z,4.92
2023-03-29T06:25:38.682Z,4.98
2023-03-29T06:30:46.040Z,5.06
2023-03-29T06:35:49.654Z,5.11
2023-03-29T06:41:07.517Z,5.18
2023-03-29T06:46:38.443Z,5.17
2023-03-29T06:51:43.277Z,5.23
2023-03-29T06:56:48.606Z,5.25
2023-03-29T07:01:59.739Z,5.27
2023-03-29T07:07:27.600Z,5.45
2023-03-29T07:12:44.678Z,5.50
2023-03-29T07:17:50.370Z,5.49
2023-03-29T07:22:55.315Z,5.48
2023-03-29T07:27:59.724Z,5.46
2023-03-29T07:33:01.813Z,5.48
2023-03-29T07:38:09.797Z,5.39
2023-03-29T07:43:15.515Z,5.55
2023-03-29T07:48:21.479Z,5.64
2023-03-29T07:53:29.914Z,5.76
2023-03-29T07:58:37.907Z,5.71
2023-03-29T08:03:43.116Z,5.64
2023-03-29T08:08:45.489Z,5.68
2023-03-29T08:13:51.693Z,5.63
2023-03-29T08:19:19.246Z,5.71
2023-03-29T08:24:41.790Z,5.97
2023-03-29T08:29:47.273Z,6.03
2023-03-29T08:34:51.828Z,6.06
2023-03-29T08:40:01.440Z,6.26
2023-03-29T08:45:33.851Z,6.29
2023-03-29T08:50:48.063Z,6.29
2023-03-29T08:55:53.945Z,6.32
2023-03-29T09:01:33.015Z,6.35
2023-03-29T09:06:39.679Z,6.33
2023-03-29T09:12:12.021Z,6.35
2023-03-29T09:17:31.230Z,6.53
2023-03-29T09:22:48.024Z,6.65
2023-03-29T09:28:05.631Z,6.52
2023-03-29T09:33:34.735Z,6.49
2023-03-29T09:38:55.913Z,6.48
2023-03-29T09:44:31.215Z,6.63
2023-03-29T09:49:43.150Z,6.59
2023-03-29T09:54:49.444Z,6.68
2023-03-29T10:00:19.719Z,6.75
2023-03-29T10:05:25.614Z,6.93
2023-03-29T10:10:32.624Z,7.27
2023-03-29T10:15:34.718Z,7.34
2023-03-29T10:20:39.243Z,7.50
2023-03-29T10:25:42.810Z,7.74
2023-03-29T10:30:48.882Z,7.88
2023-03-29T10:35:51.405Z,7.84
2023-03-29T10:40:54.836Z,8.19
2023-03-29T10:46:08.634Z,8.53
2023-03-29T10:51:17.285Z,8.61
2023-03-29T10:56:34.326Z,8.74
2023-03-29T11:02:21.241Z,8.65
2023-03-29T11:07:34.763Z,8.73
2023-03-29T11:13:08.659Z,9.06
2023-03-29T11:18:30.504Z,9.05
2023-03-29T11:24:01.073Z,9.01
2023-03-29T11:29:22.901Z,8.97
2023-03-29T11:34:33.870Z,9.14
2023-03-29T11:39:51.026Z,9.31
2023-03-29T11:44:57.664Z,9.27
2023-03-29T11:50:23.396Z,9.21
2023-03-29T11:55:30.453Z,9.43
2023-03-29T12:00:35.189Z,9.46
2023-03-29T12:05:49.681Z,9.44
2023-03-29T12:11:02.808Z,9.63
2023-03-29T12:16:13.849Z,9.65
2023-03-29T12:21:20.419Z,9.81
2023-03-29T12:26:43.768Z,10.04
2023-03-29T12:31:51.415Z,10.26
2023-03-29T12:37:32.206Z,10.36
2023-03-29T12:43:08.934Z,10.41
2023-03-29T12:48:30.873Z,10.79
2023-03-29T12:53:41.459Z,11.01
2023-03-29T12:58:54.684Z,11.19
2023-03-29T13:04:04.094Z,11.34
2023-03-29T13:09:29.745Z,11.32
2023-03-29T13:14:37.303Z,11.54
2023-03-29T13:19:45.897Z,11.53
2023-03-29T13:24:52.919Z,11.73
2023-03-29T13:30:26.018Z,11.48
2023-03-29T13:35:43.488Z,11.40
2023-03-29T13:41:07.346Z,11.22
2023-03-29T13:46:47.309Z,11.19
2023-03-29T13:52:27.274Z,11.41
2023-03-29T13:57:53.180Z,11.43
2023-03-29T14:03:01.566Z,11.55
2023-03-29T14:08:23.532Z,11.63
2023-03-29T14:13:28.111Z,11.67
2023-03-29T14:18:39.415Z,11.75
2023-03-29T14:23:44.636Z,11.62
2023-03-29T14:28:49.732Z,11.64
2023-03-29T14:34:01.871Z,11.61
2023-03-29T14:39:08.447Z,11.61
2023-03-29T14:44:12.520Z,11.71
2023-03-29T14:49:19.682Z,11.65
2023-03-29T14:54:28.179Z,11.60
2023-03-29T14:59:48.903Z,11.60
2023-03-29T15:05:03.326Z,11.61
2023-03-29T15:10:08.283Z,11.63
2023-03-29T15:15:13.616Z,11.60
2023-03-29T15:20:18.070Z,11.67
2023-03-29T15:25:21.070Z,11.74
2023-03-29T15:30:37.273Z,11.79
2023-03-29T15:35:41.888Z,11.83
2023-03-29T15:40:43.882Z,11.80
2023-03-29T15:45:48.084Z,11.78
2023-03-29T15:50:53.122Z,11.78
2023-03-29T15:56:04.032Z,11.73
2023-03-29T16:01:39.852Z,11.71
2023-03-29T16:06:42.085Z,11.71
2023-03-29T16:11:49.177Z,11.78
2023-03-29T16:16:55.342Z,11.84
2023-03-29T16:21:59.126Z,11.86
2023-03-29T16:27:01.471Z,11.89
2023-03-29T16:32:08.133Z,11.83
2023-03-29T16:37:09.929Z,11.79
2023-03-29T16:42:12.195Z,11.70
2023-03-29T16:47:16.307Z,11.59
2023-03-29T16:52:21.451Z,11.51
2023-03-29T16:57:26.590Z,11.42
2023-03-29T17:02:30.780Z,11.35
2023-03-29T17:07:35.139Z,11.29
2023-03-29T17:12:36.831Z,11.23
2023-03-29T17:17:43.295Z,11.12
2023-03-29T17:22:51.502Z,11.06
2023-03-29T17:27:54.097Z,11.01
2023-03-29T17:33:00.681Z,10.98
2023-03-29T17:38:02.987Z,10.91
2023-03-29T17:43:07.056Z,10.84
2023-03-29T17:48:16.130Z,10.76
2023-03-29T17:53:17.959Z,10.70
2023-03-29T17:58:19.717Z,10.66
2023-03-29T18:03:24.143Z,10.81
2023-03-29T18:08:28.285Z,10.74
2023-03-29T18:13:29.959Z,10.66
2023-03-29T18:18:37.325Z,10.56
2023-03-29T18:23:45.022Z,10.49
2023-03-29T18:28:47.239Z,10.45
2023-03-29T18:33:56.416Z,10.42
2023-03-29T18:39:05.386Z,10.41
2023-03-29T18:44:14.084Z,10.38
2023-03-29T18:49:16.501Z,10.38
2023-03-29T18:54:20.774Z,10.34
2023-03-29T18:59:25.921Z,10.27
2023-03-29T19:04:28.863Z,10.18
2023-03-29T19:09:31.613Z,10.09
2023-03-29T19:14:33.451Z,10.01
2023-03-29T19:19:35.660Z,9.93
2023-03-29T19:24:40.072Z,9.86
2023-03-29T19:29:43.944Z,9.82
2023-03-29T19:34:48.338Z,9.79
2023-03-29T19:39:50.204Z,9.75
2023-03-29T19:44:54.935Z,9.70
2023-03-29T19:50:03.220Z,9.65
2023-03-29T19:55:07.654Z,9.61
2023-03-29T20:00:14.162Z,9.64
2023-03-29T20:05:16.605Z,9.59
2023-03-29T20:10:18.398Z,9.54
2023-03-29T20:15:20.205Z,9.52
2023-03-29T20:20:24.119Z,9.51
2023-03-29T20:25:30.948Z,9.45
2023-03-29T20:30:36.254Z,9.44
2023-03-29T20:35:40.154Z,9.42
2023-03-29T20:40:42.341Z,9.43
2023-03-29T20:45:52.733Z,9.44
2023-03-29T20:50:55.451Z,9.45
2023-03-29T20:56:02.071Z,9.44
2023-03-29T21:01:06.380Z,9.43
2023-03-29T21:06:14.030Z,9.43
2023-03-29T21:11:19.158Z,9.43
2023-03-29T21:16:20.888Z,9.42
2023-03-29T21:21:22.970Z,9.43
2023-03-29T21:26:24.687Z,9.37
2023-03-29T21:31:29.658Z,9.36
2023-03-29T21:36:33.924Z,9.37
2023-03-29T21:41:35.833Z,9.36
2023-03-29T21:46:37.510Z,9.36
2023-03-29T21:51:41.688Z,9.32
2023-03-29T21:56:45.510Z,9.31
2023-03-29T22:01:47.439Z,9.28
2023-03-29T22:06:52.763Z,9.26
2023-03-29T22:11:56.893Z,9.28
2023-03-29T22:16:58.650Z,9.25
2023-03-29T22:22:06.425Z,9.21
2023-03-29T22:27:08.402Z,9.17
2023-03-29T22:32:12.736Z,9.13
2023-03-29T22:37:17.926Z,9.08
2023-03-29T22:42:29.144Z,9.10
2023-03-29T22:47:33.403Z,9.07
2023-03-29T22:52:39.887Z,9.03
2023-03-29T22:57:44.656Z,9.04
2023-03-29T23:02:51.517Z,9.10
2023-03-29T23:07:55.905Z,9.15
2023-03-29T23:13:08.857Z,9.16
2023-03-29T23:18:15.427Z,9.08
2023-03-29T23:23:20.127Z,9.02
2023-03-29T23:28:27.308Z,9.05
2023-03-29T23:33:33.334Z,9.11
2023-03-29T23:38:37.224Z,9.10
2023-03-29T23:43:43.706Z,9.14
2023-03-29T23:48:46.567Z,9.14
2023-03-29T23:53:48.915Z,9.16
2023-03-29T23:58:55.327Z,9.18
